Ferrol, Spain
Current Conditions -  °F | °C
As of 7:00 PM on Wednesday 28 Jan 2015 (Local Time) from LECO Reporting Station
Light Rain Light Rain  
Wind Chill: 54°   Ceiling: 1200
Heat Index: 54°   Visibility: 1.2mi
Dew Point: 54°   Wind: 7mph
Humidity: 100%   Direction: 280°W
Pressure: 30.3"   Gusts: NA
Location:  43.48°N, 8.24°W
Report Text: LECO 281800Z 28006KT 250V320 2000 -RA FEW005 SCT008 OVC01212/12 Q1026 TEMPO -DZ BR BKN014
Loading
Personal Weather Stations






























Interactive Weather Map New forecast layout! Learn more

10-Day Weather Forecast

Advertisements
Track Severe Weather on mobile